createdAt,value
2017-08-20T00:00:12.911Z,1012.2
2017-08-20T00:01:14.317Z,1012.2
2017-08-20T00:02:15.721Z,1012.1
2017-08-20T00:03:17.233Z,1012.2
2017-08-20T00:04:18.634Z,1012.1
2017-08-20T00:05:20.318Z,1012.2
2017-08-20T00:06:21.720Z,1012.1
2017-08-20T00:07:23.403Z,1012.1
2017-08-20T00:08:24.811Z,1012.1
2017-08-20T00:09:26.219Z,1012.0
2017-08-20T00:10:27.929Z,1012.1
2017-08-20T00:11:29.330Z,1012.0
2017-08-20T00:12:30.769Z,1012.1
2017-08-20T00:13:32.455Z,1012.1
2017-08-20T00:14:33.858Z,1012.1
2017-08-20T00:15:35.541Z,1012.1
2017-08-20T00:16:36.947Z,1012.1
2017-08-20T00:17:38.625Z,1012.2
2017-08-20T00:18:40.025Z,1012.2
2017-08-20T00:19:41.711Z,1012.1
2017-08-20T00:20:43.117Z,1012.2
2017-08-20T00:21:44.822Z,1012.2
2017-08-20T00:22:46.228Z,1012.3
2017-08-20T00:23:47.881Z,1012.3
2017-08-20T00:24:49.296Z,1012.3
2017-08-20T00:25:50.968Z,1012.3
2017-08-20T00:26:52.371Z,1012.3
2017-08-20T00:27:54.053Z,1012.3
2017-08-20T00:28:55.460Z,1012.2
2017-08-20T00:29:56.865Z,1012.2
2017-08-20T00:30:58.373Z,1012.2
2017-08-20T00:31:59.773Z,1012.2
2017-08-20T00:33:01.187Z,1012.2
2017-08-20T00:34:02.695Z,1012.2
2017-08-20T00:35:04.105Z,1012.2
2017-08-20T00:36:05.781Z,1012.2
2017-08-20T00:37:07.185Z,1012.2
2017-08-20T00:38:08.591Z,1012.2
2017-08-20T00:39:10.102Z,1012.2
2017-08-20T00:40:11.502Z,1012.1
2017-08-20T00:41:12.905Z,1012.2
2017-08-20T00:42:14.422Z,1012.2
2017-08-20T00:43:15.826Z,1012.2
2017-08-20T00:44:17.228Z,1012.1
2017-08-20T00:45:18.744Z,1012.2
2017-08-20T00:46:20.147Z,1012.3
2017-08-20T00:47:21.828Z,1012.2
2017-08-20T00:48:23.253Z,1012.3
2017-08-20T00:49:24.672Z,1012.4
2017-08-20T00:50:26.355Z,1012.4
2017-08-20T00:51:27.759Z,1012.5
2017-08-20T00:52:29.204Z,1012.5
2017-08-20T00:53:30.881Z,1012.6
2017-08-20T00:54:32.282Z,1012.6
2017-08-20T00:55:33.965Z,1012.7
2017-08-20T00:56:35.389Z,1012.7
2017-08-20T00:57:37.070Z,1012.8
2017-08-20T00:58:38.472Z,1012.8
2017-08-20T00:59:40.138Z,1012.8
2017-08-20T01:00:41.565Z,1012.8
2017-08-20T01:01:43.223Z,1012.8
2017-08-20T01:02:44.630Z,1012.8
2017-08-20T01:03:46.029Z,1012.8
2017-08-20T01:04:47.562Z,1012.8
2017-08-20T01:05:48.965Z,1012.7
2017-08-20T01:06:50.374Z,1012.7
2017-08-20T01:07:52.070Z,1012.7
2017-08-20T01:08:53.472Z,1012.7
2017-08-20T01:09:54.894Z,1012.7
2017-08-20T01:10:56.390Z,1012.7
2017-08-20T01:11:57.796Z,1012.8
2017-08-20T01:12:59.200Z,1012.8
2017-08-20T01:14:00.711Z,1012.8
2017-08-20T01:15:02.117Z,1012.9
2017-08-20T01:16:03.796Z,1012.9
2017-08-20T01:17:05.198Z,1013.0
2017-08-20T01:18:06.881Z,1013.0
2017-08-20T01:19:08.285Z,1013.0
2017-08-20T01:20:09.689Z,1013.1
2017-08-20T01:21:11.204Z,1013.1
2017-08-20T01:22:12.607Z,1013.1
2017-08-20T01:23:14.009Z,1013.2
2017-08-20T01:24:15.452Z,1013.2
2017-08-20T01:25:16.856Z,1013.2
2017-08-20T01:26:18.259Z,1013.4
2017-08-20T01:27:19.844Z,1013.4
2017-08-20T01:28:21.249Z,1013.4
2017-08-20T01:29:22.656Z,1013.5
2017-08-20T01:30:24.165Z,1013.5
2017-08-20T01:31:25.567Z,1013.6
2017-08-20T01:32:27.251Z,1013.6
2017-08-20T01:33:28.655Z,1013.6
2017-08-20T01:34:30.336Z,1013.6
2017-08-20T01:35:31.739Z,1013.5
2017-08-20T01:36:33.422Z,1013.6
2017-08-20T01:37:34.826Z,1013.5
2017-08-20T01:38:36.514Z,1013.5
2017-08-20T01:39:37.919Z,1013.4
2017-08-20T01:40:39.329Z,1013.4
2017-08-20T01:41:40.830Z,1013.4
2017-08-20T01:42:42.236Z,1013.3
2017-08-20T01:43:43.643Z,1013.3
2017-08-20T01:44:45.149Z,1013.2
2017-08-20T01:45:46.552Z,1013.2
2017-08-20T01:46:47.955Z,1013.1
2017-08-20T01:47:49.471Z,1013.0
2017-08-20T01:48:50.876Z,1013.1
2017-08-20T01:49:52.287Z,1013.0
2017-08-20T01:50:53.823Z,1013.0
2017-08-20T01:51:55.226Z,1013.0
2017-08-20T01:52:56.628Z,1013.0
2017-08-20T01:53:58.112Z,1012.9
2017-08-20T01:54:59.517Z,1012.9
2017-08-20T01:56:01.154Z,1012.9
2017-08-20T01:57:02.574Z,1012.8
2017-08-20T01:58:04.011Z,1012.7
2017-08-20T01:59:05.414Z,1012.7
2017-08-20T02:00:06.964Z,1012.7
2017-08-20T02:01:08.367Z,1012.6
2017-08-20T02:02:10.044Z,1012.5
2017-08-20T02:03:11.451Z,1012.5
2017-08-20T02:04:13.066Z,1012.5
2017-08-20T02:05:14.471Z,1012.4
2017-08-20T02:06:15.880Z,1012.4
2017-08-20T02:07:17.452Z,1012.3
2017-08-20T02:08:18.855Z,1012.3
2017-08-20T02:09:20.287Z,1012.2
2017-08-20T02:10:21.771Z,1012.1
2017-08-20T02:11:23.177Z,1012.1
2017-08-20T02:12:24.582Z,1012.1
2017-08-20T02:13:26.098Z,1012.0
2017-08-20T02:14:27.502Z,1012.0
2017-08-20T02:15:28.905Z,1012.0
2017-08-20T02:16:30.419Z,1012.0
2017-08-20T02:17:31.834Z,1011.9
2017-08-20T02:18:33.499Z,1011.9
2017-08-20T02:19:34.903Z,1011.9
2017-08-20T02:20:36.327Z,1011.9
2017-08-20T02:21:37.820Z,1011.9
2017-08-20T02:22:39.233Z,1011.9
2017-08-20T02:23:40.677Z,1011.9
2017-08-20T02:24:42.346Z,1012.0
2017-08-20T02:25:43.751Z,1012.0
2017-08-20T02:26:45.160Z,1012.0
2017-08-20T02:27:46.667Z,1012.0
2017-08-20T02:28:48.068Z,1012.0
2017-08-20T02:29:49.476Z,1012.1
2017-08-20T02:30:50.989Z,1012.1
2017-08-20T02:31:52.469Z,1012.1
2017-08-20T02:32:54.073Z,1012.1
2017-08-20T02:33:55.485Z,1012.1
2017-08-20T02:34:56.889Z,1012.1
2017-08-20T02:35:58.598Z,1012.0
2017-08-20T02:36:59.998Z,1012.0
2017-08-20T02:38:01.403Z,1012.0
2017-08-20T02:39:02.919Z,1011.9
2017-08-20T02:40:04.326Z,1011.9
2017-08-20T02:41:05.804Z,1011.8
2017-08-20T02:42:07.204Z,1011.9
2017-08-20T02:43:08.706Z,1011.8
2017-08-20T02:44:10.162Z,1011.8
2017-08-20T02:45:11.709Z,1011.8
2017-08-20T02:46:13.118Z,1011.7
2017-08-20T02:47:14.651Z,1011.7
2017-08-20T02:48:16.053Z,1011.7
2017-08-20T02:49:17.454Z,1011.7
2017-08-20T02:50:18.974Z,1011.6
2017-08-20T02:51:20.386Z,1011.6
2017-08-20T02:52:21.793Z,1011.6
2017-08-20T02:53:23.291Z,1011.6
2017-08-20T02:54:24.710Z,1011.6
2017-08-20T02:55:26.117Z,1011.7
2017-08-20T02:56:27.635Z,1011.7
2017-08-20T02:57:29.050Z,1011.7
2017-08-20T02:58:30.704Z,1011.7
2017-08-20T02:59:32.108Z,1011.8
2017-08-20T03:00:33.784Z,1011.7
2017-08-20T03:01:35.193Z,1011.8
2017-08-20T03:02:36.879Z,1011.8
2017-08-20T03:03:38.273Z,1011.8
2017-08-20T03:04:39.956Z,1011.9
2017-08-20T03:05:41.363Z,1011.9
2017-08-20T03:06:42.766Z,1011.9
2017-08-20T03:07:44.279Z,1011.9
2017-08-20T03:08:45.737Z,1012.0
2017-08-20T03:09:47.141Z,1011.9
2017-08-20T03:10:48.750Z,1011.9
2017-08-20T03:11:50.152Z,1011.9
2017-08-20T03:12:51.556Z,1012.0
2017-08-20T03:13:53.129Z,1011.9
2017-08-20T03:14:54.533Z,1011.9
2017-08-20T03:15:55.977Z,1011.9
2017-08-20T03:16:57.647Z,1011.9
2017-08-20T03:17:59.459Z,1011.9
2017-08-20T03:19:00.937Z,1011.9
2017-08-20T03:20:02.348Z,1011.9
2017-08-20T03:21:03.754Z,1011.9
2017-08-20T03:22:05.258Z,1011.9
2017-08-20T03:23:06.665Z,1011.9
2017-08-20T03:24:08.069Z,1011.9
2017-08-20T03:25:09.580Z,1011.9
2017-08-20T03:26:10.985Z,1011.9
2017-08-20T03:27:12.389Z,1011.9
2017-08-20T03:28:13.899Z,1011.9
2017-08-20T03:29:15.308Z,1011.9
2017-08-20T03:30:16.714Z,1011.9
2017-08-20T03:31:18.226Z,1011.9
2017-08-20T03:32:19.629Z,1011.9
2017-08-20T03:33:21.102Z,1011.9
2017-08-20T03:34:22.512Z,1011.8
2017-08-20T03:35:23.982Z,1011.8
2017-08-20T03:36:25.389Z,1011.8
2017-08-20T03:37:26.864Z,1011.8
2017-08-20T03:38:28.282Z,1011.7
2017-08-20T03:39:29.745Z,1011.7
2017-08-20T03:40:31.147Z,1011.7
2017-08-20T03:41:32.644Z,1011.6
2017-08-20T03:42:34.050Z,1011.6
2017-08-20T03:43:35.709Z,1011.7
2017-08-20T03:44:37.117Z,1011.7
2017-08-20T03:45:38.590Z,1011.7
2017-08-20T03:46:39.991Z,1011.6
2017-08-20T03:47:41.395Z,1011.7
2017-08-20T03:48:42.909Z,1011.6
2017-08-20T03:49:44.315Z,1011.7
2017-08-20T03:50:45.718Z,1011.6
2017-08-20T03:51:47.232Z,1011.6
2017-08-20T03:52:48.638Z,1011.5
2017-08-20T03:53:50.040Z,1011.5
2017-08-20T03:54:51.555Z,1011.5
2017-08-20T03:55:52.989Z,1011.5
2017-08-20T03:56:54.396Z,1011.5
2017-08-20T03:57:55.879Z,1011.5
2017-08-20T03:58:57.284Z,1011.5
2017-08-20T03:59:58.757Z,1011.5
2017-08-20T04:01:00.161Z,1011.5
2017-08-20T04:02:01.636Z,1011.5
2017-08-20T04:03:03.043Z,1011.5
2017-08-20T04:04:04.519Z,1011.5
2017-08-20T04:05:05.925Z,1011.5
2017-08-20T04:06:07.327Z,1011.5
2017-08-20T04:07:08.842Z,1011.5
2017-08-20T04:08:10.243Z,1011.6
2017-08-20T04:09:11.646Z,1011.6
2017-08-20T04:10:13.156Z,1011.6
2017-08-20T04:11:14.563Z,1011.7
2017-08-20T04:12:15.967Z,1011.7
2017-08-20T04:13:17.481Z,1011.7
2017-08-20T04:14:18.892Z,1011.8
2017-08-20T04:15:20.292Z,1011.7
2017-08-20T04:16:21.764Z,1011.8
2017-08-20T04:17:23.174Z,1011.9
2017-08-20T04:18:24.683Z,1012.0
2017-08-20T04:19:26.090Z,1012.0
2017-08-20T04:20:27.563Z,1012.1
2017-08-20T04:21:28.970Z,1012.1
2017-08-20T04:22:30.443Z,1012.2
2017-08-20T04:23:31.845Z,1012.3
2017-08-20T04:24:33.331Z,1012.3
2017-08-20T04:25:34.771Z,1012.3
2017-08-20T04:26:36.179Z,1012.4
2017-08-20T04:27:37.626Z,1012.5
2017-08-20T04:28:39.032Z,1012.5
2017-08-20T04:29:40.451Z,1012.6
2017-08-20T04:30:41.976Z,1012.6
2017-08-20T04:31:43.408Z,1012.6
2017-08-20T04:32:44.817Z,1012.7
2017-08-20T04:33:46.291Z,1012.8
2017-08-20T04:34:47.735Z,1012.8
2017-08-20T04:35:49.142Z,1012.8
2017-08-20T04:36:50.610Z,1012.8
2017-08-20T04:37:52.024Z,1012.9
2017-08-20T04:38:53.434Z,1012.9
2017-08-20T04:39:54.930Z,1012.9
2017-08-20T04:40:56.338Z,1013.0
2017-08-20T04:41:57.749Z,1013.0
2017-08-20T04:42:59.251Z,1012.9
2017-08-20T04:44:00.655Z,1013.0
2017-08-20T04:45:02.063Z,1013.0
2017-08-20T04:46:03.572Z,1013.0
2017-08-20T04:47:04.978Z,1013.0
2017-08-20T04:48:06.389Z,1013.0
2017-08-20T04:49:07.893Z,1013.0
2017-08-20T04:50:09.304Z,1013.0
2017-08-20T04:51:10.709Z,1013.0
2017-08-20T04:52:12.214Z,1013.0
2017-08-20T04:53:13.618Z,1013.1
2017-08-20T04:54:15.306Z,1013.1
2017-08-20T04:55:16.716Z,1013.1
2017-08-20T04:56:18.181Z,1013.1
2017-08-20T04:57:19.590Z,1013.2
2017-08-20T04:58:20.996Z,1013.3
2017-08-20T04:59:22.503Z,1013.3
2017-08-20T05:00:23.911Z,1013.4
2017-08-20T05:01:25.320Z,1013.4
2017-08-20T05:02:26.822Z,1013.6
2017-08-20T05:03:28.232Z,1013.6
2017-08-20T05:04:29.703Z,1013.6
2017-08-20T05:05:31.112Z,1013.8
2017-08-20T05:06:32.585Z,1013.8
2017-08-20T05:07:33.992Z,1013.8
2017-08-20T05:08:35.484Z,1013.8
2017-08-20T05:09:36.890Z,1013.8
2017-08-20T05:10:38.456Z,1013.9
2017-08-20T05:11:39.864Z,1013.9
2017-08-20T05:12:41.272Z,1013.9
2017-08-20T05:13:42.880Z,1014.0
2017-08-20T05:14:44.289Z,1014.1
2017-08-20T05:15:45.695Z,1014.3
2017-08-20T05:16:47.191Z,1014.4
2017-08-20T05:17:48.603Z,1014.5
2017-08-20T05:18:50.072Z,1014.5
2017-08-20T05:19:51.490Z,1014.6
2017-08-20T05:20:52.990Z,1014.7
2017-08-20T05:21:54.382Z,1014.8
2017-08-20T05:22:55.832Z,1014.8
2017-08-20T05:23:57.243Z,1014.9
2017-08-20T05:24:58.714Z,1014.9
2017-08-20T05:26:00.125Z,1015.0
2017-08-20T05:27:01.594Z,1015.1
2017-08-20T05:28:03.002Z,1015.2
2017-08-20T05:29:04.475Z,1015.2
2017-08-20T05:30:05.911Z,1015.3
2017-08-20T05:31:07.357Z,1015.4
2017-08-20T05:32:08.774Z,1015.5
2017-08-20T05:33:10.237Z,1015.6
2017-08-20T05:34:11.646Z,1015.6
2017-08-20T05:35:13.117Z,1015.7
2017-08-20T05:36:14.526Z,1015.8
2017-08-20T05:37:15.932Z,1015.9
2017-08-20T05:38:17.437Z,1015.9
2017-08-20T05:39:18.849Z,1016.0
2017-08-20T05:40:20.260Z,1016.1
2017-08-20T05:41:21.759Z,1016.2
2017-08-20T05:42:23.168Z,1016.2
2017-08-20T05:43:24.573Z,1016.1
2017-08-20T05:44:26.112Z,1016.2
2017-08-20T05:45:27.825Z,1016.2
2017-08-20T05:46:29.238Z,1016.1
2017-08-20T05:47:30.843Z,1016.2
2017-08-20T05:48:32.248Z,1016.2
2017-08-20T05:49:33.693Z,1016.1
2017-08-20T05:50:35.098Z,1016.1
2017-08-20T05:51:36.512Z,1016.2
2017-08-20T05:52:38.013Z,1016.3
2017-08-20T05:53:39.433Z,1016.4
2017-08-20T05:54:40.841Z,1016.4
2017-08-20T05:55:42.335Z,1016.5
2017-08-20T05:56:43.738Z,1016.5
2017-08-20T05:57:45.145Z,1016.6
2017-08-20T05:58:46.656Z,1016.7
2017-08-20T05:59:48.064Z,1016.7
2017-08-20T06:00:49.536Z,1016.7
2017-08-20T06:01:50.948Z,1016.7
2017-08-20T06:02:52.416Z,1016.8
2017-08-20T06:03:53.822Z,1016.8
2017-08-20T06:04:55.296Z,1016.8
2017-08-20T06:05:56.704Z,1016.7
2017-08-20T06:06:58.177Z,1016.7
2017-08-20T06:07:59.587Z,1016.7
2017-08-20T06:09:00.995Z,1016.7
2017-08-20T06:10:02.500Z,1016.7
2017-08-20T06:11:03.905Z,1016.7
2017-08-20T06:12:05.311Z,1016.8
2017-08-20T06:13:06.819Z,1016.8
2017-08-20T06:14:08.236Z,1016.9
2017-08-20T06:15:09.698Z,1016.9
2017-08-20T06:16:11.109Z,1016.9
2017-08-20T06:17:12.582Z,1017.0
2017-08-20T06:18:13.992Z,1017.0
2017-08-20T06:19:15.469Z,1016.9
2017-08-20T06:20:16.882Z,1016.9
2017-08-20T06:21:18.343Z,1017.0
2017-08-20T06:22:19.753Z,1017.0
2017-08-20T06:23:21.221Z,1017.1
2017-08-20T06:24:22.629Z,1017.2
2017-08-20T06:25:24.103Z,1017.3
2017-08-20T06:26:25.512Z,1017.4
2017-08-20T06:27:26.921Z,1017.5
2017-08-20T06:28:28.424Z,1017.5
2017-08-20T06:29:30.213Z,1017.6
2017-08-20T06:30:31.623Z,1017.6
2017-08-20T06:31:33.054Z,1017.8
2017-08-20T06:32:34.458Z,1018.0
2017-08-20T06:33:35.872Z,1018.2
2017-08-20T06:34:37.376Z,1018.3
2017-08-20T06:35:38.784Z,1018.5
2017-08-20T06:36:40.197Z,1018.6
2017-08-20T06:37:41.699Z,1018.8
2017-08-20T06:38:43.107Z,1018.9
2017-08-20T06:39:44.516Z,1019.0
2017-08-20T06:40:46.019Z,1019.2
2017-08-20T06:41:47.428Z,1019.3
2017-08-20T06:42:48.849Z,1019.4
2017-08-20T06:43:50.337Z,1019.5
2017-08-20T06:44:51.761Z,1019.5
2017-08-20T06:45:53.168Z,1019.7
2017-08-20T06:46:54.667Z,1019.8
2017-08-20T06:47:56.069Z,1019.9
2017-08-20T06:48:57.492Z,1019.8
2017-08-20T06:49:58.979Z,1019.9
2017-08-20T06:51:00.396Z,1020.0
2017-08-20T06:52:01.813Z,1020.0
2017-08-20T06:53:03.300Z,1020.0
2017-08-20T06:54:04.712Z,1020.0
2017-08-20T06:55:06.527Z,1019.9
2017-08-20T06:56:08.049Z,1019.9
2017-08-20T06:57:09.438Z,1019.8
2017-08-20T06:58:10.848Z,1019.8
2017-08-20T06:59:12.264Z,1019.8
2017-08-20T07:00:13.674Z,1019.9
2017-08-20T07:01:15.083Z,1020.0
2017-08-20T07:02:16.491Z,1020.1
2017-08-20T07:03:17.908Z,1020.1
2017-08-20T07:04:19.316Z,1020.2
2017-08-20T07:05:20.732Z,1020.2
2017-08-20T07:06:22.146Z,1020.2
2017-08-20T07:07:23.561Z,1020.1
2017-08-20T07:08:24.966Z,1020.1
2017-08-20T07:09:26.380Z,1020.0
2017-08-20T07:10:27.841Z,1020.1
2017-08-20T07:11:29.254Z,1020.2
2017-08-20T07:12:30.669Z,1020.4
2017-08-20T07:13:32.087Z,1020.8
2017-08-20T07:14:33.497Z,1021.3
2017-08-20T07:15:34.909Z,1021.9
2017-08-20T07:16:36.317Z,1022.3
2017-08-20T07:17:37.732Z,1022.9
2017-08-20T07:18:39.142Z,1023.4
2017-08-20T07:19:40.559Z,1023.9
2017-08-20T07:20:41.977Z,1024.3
2017-08-20T07:21:43.400Z,1024.4
2017-08-20T07:22:44.808Z,1024.3
2017-08-20T07:23:46.217Z,1024.3
2017-08-20T07:24:47.637Z,1024.3
2017-08-20T07:25:49.043Z,1024.2
2017-08-20T07:26:50.455Z,1024.2
2017-08-20T07:27:51.869Z,1024.3
2017-08-20T07:28:53.282Z,1024.5
2017-08-20T07:29:54.694Z,1024.8
2017-08-20T07:30:56.103Z,1025.1
2017-08-20T07:31:57.518Z,1025.4
2017-08-20T07:32:58.926Z,1025.4
2017-08-20T07:34:00.343Z,1025.7
2017-08-20T07:35:01.766Z,1025.8
2017-08-20T07:36:03.169Z,1025.9
2017-08-20T07:37:04.578Z,1026.1
2017-08-20T07:38:05.999Z,1026.3
2017-08-20T07:39:07.401Z,1026.5
2017-08-20T07:40:08.821Z,1026.4
2017-08-20T07:41:10.234Z,1026.7
2017-08-20T07:42:11.652Z,1027.1
2017-08-20T07:43:13.059Z,1027.0
2017-08-20T07:44:15.472Z,1027.3
2017-08-20T07:45:16.881Z,1027.5
2017-08-20T07:46:18.310Z,1027.9
2017-08-20T07:47:19.722Z,1027.8
2017-08-20T07:48:21.134Z,1028.0
2017-08-20T07:49:22.549Z,1028.2
2017-08-20T07:50:23.960Z,1028.4
2017-08-20T07:51:25.379Z,1028.7
2017-08-20T07:52:26.788Z,1028.9
2017-08-20T07:53:28.216Z,1029.1
2017-08-20T07:54:29.630Z,1029.1
2017-08-20T07:55:31.040Z,1029.3
2017-08-20T07:56:32.458Z,1029.2
2017-08-20T07:57:33.878Z,1029.3
2017-08-20T07:58:35.290Z,1029.6
2017-08-20T07:59:36.698Z,1029.8
2017-08-20T08:00:38.109Z,1029.9
2017-08-20T08:01:39.523Z,1030.2
2017-08-20T08:02:40.942Z,1030.8
2017-08-20T08:03:42.353Z,1031.1
2017-08-20T08:04:43.765Z,1031.4
2017-08-20T08:05:45.171Z,1031.7
2017-08-20T08:06:46.982Z,1031.9
2017-08-20T08:07:48.398Z,1032.2
2017-08-20T08:08:49.804Z,1032.1
2017-08-20T08:09:51.222Z,1031.7
2017-08-20T08:10:52.634Z,1032.2
2017-08-20T08:11:54.046Z,1032.2
2017-08-20T08:12:55.471Z,1032.4
2017-08-20T08:13:56.882Z,1032.5
2017-08-20T08:14:58.296Z,1032.1
2017-08-20T08:15:59.707Z,1032.2
2017-08-20T08:17:01.120Z,1032.4
2017-08-20T08:18:02.530Z,1032.5
2017-08-20T08:19:03.944Z,1032.8
2017-08-20T08:20:05.350Z,1032.9
2017-08-20T08:21:06.797Z,1033.0
2017-08-20T08:22:08.207Z,1033.1
2017-08-20T08:23:09.625Z,1033.4
2017-08-20T08:24:11.035Z,1033.8
2017-08-20T08:25:12.452Z,1034.0
2017-08-20T08:26:13.861Z,1034.4
2017-08-20T08:27:15.274Z,1034.8
2017-08-20T08:28:16.683Z,1035.3
2017-08-20T08:29:18.094Z,1035.9
2017-08-20T08:30:19.510Z,1036.1
2017-08-20T08:31:20.921Z,1035.9
2017-08-20T08:32:22.333Z,1035.8
2017-08-20T08:33:23.751Z,1036.5
2017-08-20T08:34:25.183Z,1036.1
2017-08-20T08:35:26.593Z,1036.6
2017-08-20T08:36:28.010Z,1036.9
2017-08-20T08:37:29.423Z,1037.5
2017-08-20T08:38:30.833Z,1036.8
2017-08-20T08:39:32.251Z,1036.5
2017-08-20T08:40:33.661Z,1036.7
2017-08-20T08:41:35.068Z,1037.0
2017-08-20T08:42:36.490Z,1036.2
2017-08-20T08:43:37.925Z,1035.8
2017-08-20T08:44:39.361Z,1035.3
2017-08-20T08:45:40.777Z,1034.8
2017-08-20T08:46:42.189Z,1034.3
2017-08-20T08:47:43.607Z,1033.8
2017-08-20T08:48:45.007Z,1034.4
2017-08-20T08:49:46.416Z,1035.1
2017-08-20T08:50:47.835Z,1035.7
2017-08-20T08:51:49.240Z,1036.0
2017-08-20T08:52:50.647Z,1035.4
2017-08-20T08:53:52.081Z,1036.5
2017-08-20T08:54:53.503Z,1037.7
2017-08-20T08:55:54.909Z,1038.9
2017-08-20T08:56:56.323Z,1039.0
2017-08-20T08:57:57.733Z,1038.7
2017-08-20T08:58:59.143Z,1037.5
2017-08-20T09:00:00.559Z,1036.8
2017-08-20T09:01:01.975Z,1037.1
2017-08-20T09:02:03.381Z,1037.0
2017-08-20T09:03:04.800Z,1036.2
2017-08-20T09:04:06.203Z,1035.7
2017-08-20T09:05:07.615Z,1035.6
2017-08-20T09:06:09.030Z,1035.9
2017-08-20T09:07:10.441Z,1036.6
2017-08-20T09:08:11.877Z,1037.7
2017-08-20T09:09:13.284Z,1038.5
2017-08-20T09:10:14.691Z,1039.2
2017-08-20T09:11:16.102Z,1039.8
2017-08-20T09:12:17.520Z,1040.7
2017-08-20T09:13:18.927Z,1041.8
2017-08-20T09:14:20.338Z,1043.0
2017-08-20T09:15:21.753Z,1043.1
2017-08-20T09:16:23.177Z,1043.3
2017-08-20T09:17:24.595Z,1043.9
2017-08-20T09:18:26.005Z,1044.2
2017-08-20T09:19:27.422Z,1044.2
2017-08-20T09:20:28.832Z,1043.8
2017-08-20T09:21:30.244Z,1043.0
2017-08-20T09:22:31.683Z,1042.3
2017-08-20T09:23:33.067Z,1041.7
2017-08-20T09:24:34.477Z,1041.1
2017-08-20T09:25:35.911Z,1040.6
2017-08-20T09:26:37.317Z,1040.3
2017-08-20T09:27:38.734Z,1039.9
2017-08-20T09:28:40.148Z,1039.1
2017-08-20T09:29:41.568Z,1038.9
2017-08-20T09:30:42.992Z,1039.1
2017-08-20T09:31:44.406Z,1038.2
2017-08-20T09:32:45.816Z,1037.3
2017-08-20T09:33:47.232Z,1036.5
2017-08-20T09:34:48.645Z,1035.6
2017-08-20T09:35:50.063Z,1034.8
2017-08-20T09:36:51.477Z,1034.0
2017-08-20T09:37:52.886Z,1033.2
2017-08-20T09:38:54.324Z,1032.5
2017-08-20T09:39:55.737Z,1031.8
2017-08-20T09:40:57.192Z,1031.2
2017-08-20T09:41:58.613Z,1030.6
2017-08-20T09:43:00.023Z,1030.1
2017-08-20T09:44:01.440Z,1029.7
2017-08-20T09:45:02.853Z,1029.4
2017-08-20T09:46:04.255Z,1029.1
2017-08-20T09:47:05.673Z,1028.9
2017-08-20T09:48:07.086Z,1028.5
2017-08-20T09:49:08.489Z,1027.9
2017-08-20T09:50:09.910Z,1027.3
2017-08-20T09:51:11.331Z,1026.9
2017-08-20T09:52:12.740Z,1026.5
2017-08-20T09:53:14.157Z,1026.1
2017-08-20T09:54:15.941Z,1025.8
2017-08-20T09:55:17.358Z,1025.5
2017-08-20T09:56:18.775Z,1025.3
2017-08-20T09:57:20.184Z,1025.1
2017-08-20T09:58:21.625Z,1024.9
2017-08-20T09:59:23.038Z,1024.6
2017-08-20T10:00:24.444Z,1024.5
2017-08-20T10:01:25.855Z,1024.2
2017-08-20T10:02:27.320Z,1024.1
2017-08-20T10:03:28.712Z,1024.1
2017-08-20T10:04:30.126Z,1024.1
2017-08-20T10:05:31.626Z,1024.3
2017-08-20T10:06:33.032Z,1024.6
2017-08-20T10:07:34.509Z,1025.0
2017-08-20T10:08:35.920Z,1025.7
2017-08-20T10:09:37.387Z,1026.3
2017-08-20T10:10:39.186Z,1026.5
2017-08-20T10:11:40.598Z,1026.7
2017-08-20T10:12:42.131Z,1027.5
2017-08-20T10:13:43.544Z,1029.2
2017-08-20T10:14:45.337Z,1029.7
2017-08-20T10:15:46.849Z,1030.1
2017-08-20T10:16:48.260Z,1030.5
2017-08-20T10:17:49.728Z,1030.1
2017-08-20T10:18:51.475Z,1030.8
2017-08-20T10:19:52.919Z,1033.9
2017-08-20T10:20:54.327Z,1037.3
2017-08-20T10:21:55.738Z,1047.2
2017-08-20T10:22:57.240Z,1056.5
2017-08-20T10:23:58.653Z,1063.4
2017-08-20T10:25:00.070Z,1067.7
2017-08-20T10:26:01.561Z,1070.9
2017-08-20T10:27:02.975Z,1069.8
2017-08-20T10:28:04.385Z,1055.6
2017-08-20T10:29:05.881Z,1052.8
2017-08-20T10:30:07.292Z,1050.6
2017-08-20T10:31:08.703Z,1048.8
2017-08-20T10:32:10.203Z,1047.1
2017-08-20T10:33:11.619Z,1045.5
2017-08-20T10:34:13.086Z,1044.0
2017-08-20T10:35:14.494Z,1058.0
2017-08-20T10:36:15.903Z,1064.2
2017-08-20T10:37:17.394Z,1068.9
2017-08-20T10:38:18.824Z,1067.1
2017-08-20T10:39:20.237Z,1070.9
2017-08-20T10:40:21.733Z,1074.5
2017-08-20T10:41:23.146Z,1076.5
2017-08-20T10:42:24.606Z,1079.3
2017-08-20T10:43:27.814Z,1081.6
2017-08-20T10:44:29.234Z,1083.7
2017-08-20T10:45:30.647Z,1085.8
2017-08-20T10:46:32.066Z,1086.8
2017-08-20T10:47:33.486Z,1073.5
2017-08-20T10:48:34.906Z,1078.0
2017-08-20T10:49:36.320Z,1075.1
2017-08-20T10:50:37.732Z,1077.1
2017-08-20T10:51:39.543Z,1068.1
2017-08-20T10:52:40.955Z,1064.3
2017-08-20T10:53:42.411Z,1061.1
2017-08-20T10:54:43.824Z,1058.1
2017-08-20T10:55:45.238Z,1055.1
2017-08-20T10:56:46.654Z,1052.5
2017-08-20T10:57:48.066Z,1050.2
2017-08-20T10:58:49.479Z,1047.9
2017-08-20T10:59:50.917Z,1045.7
2017-08-20T11:00:52.329Z,1043.5
2017-08-20T11:01:53.740Z,1041.6
2017-08-20T11:02:55.162Z,1039.9
2017-08-20T11:03:56.595Z,1038.6
2017-08-20T11:04:58.001Z,1037.5
2017-08-20T11:05:59.418Z,1036.5
2017-08-20T11:07:00.832Z,1036.0
2017-08-20T11:08:02.252Z,1036.4
2017-08-20T11:09:03.669Z,1046.3
2017-08-20T11:10:05.086Z,1052.5
2017-08-20T11:11:06.502Z,1056.0
2017-08-20T11:12:07.918Z,1061.3
2017-08-20T11:13:09.331Z,1065.8
2017-08-20T11:14:10.751Z,1069.3
2017-08-20T11:15:12.172Z,1073.3
2017-08-20T11:16:13.594Z,1063.6
2017-08-20T11:17:15.009Z,1072.2
2017-08-20T11:18:16.428Z,1070.6
2017-08-20T11:19:17.845Z,1076.2
2017-08-20T11:20:19.265Z,1080.1
2017-08-20T11:21:20.683Z,1081.7
2017-08-20T11:22:22.100Z,1079.4
2017-08-20T11:23:23.520Z,1077.1
2017-08-20T11:24:24.937Z,1074.0
2017-08-20T11:25:26.351Z,1072.7
2017-08-20T11:26:27.773Z,1076.8
2017-08-20T11:27:29.190Z,1079.0
2017-08-20T11:28:30.606Z,1080.3
2017-08-20T11:29:32.027Z,1073.7
2017-08-20T11:30:33.450Z,1078.5
2017-08-20T11:31:34.867Z,1083.8
2017-08-20T11:32:36.286Z,1087.2
2017-08-20T11:33:37.706Z,1090.5
2017-08-20T11:34:39.154Z,1093.4
2017-08-20T11:35:40.575Z,1095.7
2017-08-20T11:36:41.991Z,1096.8
2017-08-20T11:37:43.419Z,1098.0
2017-08-20T11:38:44.836Z,1097.9
2017-08-20T11:39:46.252Z,1095.7
2017-08-20T11:40:47.678Z,1094.1
2017-08-20T11:41:49.095Z,1092.7
2017-08-20T11:42:50.513Z,1092.4
2017-08-20T11:43:51.968Z,1092.1
2017-08-20T11:44:53.389Z,1091.7
2017-08-20T11:45:54.812Z,1091.5
2017-08-20T11:46:56.230Z,1091.1
2017-08-20T11:47:57.659Z,1090.4
2017-08-20T11:48:59.074Z,1089.7
2017-08-20T11:50:00.498Z,1088.8
2017-08-20T11:51:01.920Z,1088.1
2017-08-20T11:52:03.364Z,1087.0
2017-08-20T11:53:05.200Z,1083.3
2017-08-20T11:54:06.621Z,1083.1
2017-08-20T11:55:08.040Z,1080.1
2017-08-20T11:56:09.462Z,1077.2
2017-08-20T11:57:10.878Z,1072.4
2017-08-20T11:58:12.291Z,1068.6
2017-08-20T11:59:13.718Z,1066.1
2017-08-20T12:00:15.140Z,1063.6
2017-08-20T12:01:16.550Z,1061.3
2017-08-20T12:02:17.973Z,1059.8
2017-08-20T12:03:19.388Z,1058.2
2017-08-20T12:04:20.805Z,1057.0
2017-08-20T12:05:22.231Z,1056.8
2017-08-20T12:06:23.654Z,1057.6
2017-08-20T12:07:25.064Z,1058.7
2017-08-20T12:08:26.524Z,1059.9
2017-08-20T12:09:27.940Z,1059.7
2017-08-20T12:10:29.353Z,1055.1
2017-08-20T12:11:30.780Z,1055.7
2017-08-20T12:12:32.212Z,1055.4
2017-08-20T12:13:33.634Z,1051.3
2017-08-20T12:14:35.059Z,1048.3
2017-08-20T12:15:36.528Z,1045.8
2017-08-20T12:16:37.945Z,1043.3
2017-08-20T12:17:39.378Z,1040.9
2017-08-20T12:18:40.793Z,1038.6
2017-08-20T12:19:42.213Z,1036.6
2017-08-20T12:20:44.017Z,1034.8
2017-08-20T12:21:45.432Z,1033.4
2017-08-20T12:22:46.844Z,1031.8
2017-08-20T12:23:48.259Z,1029.9
2017-08-20T12:24:49.675Z,1028.1
2017-08-20T12:25:51.089Z,1026.2
2017-08-20T12:26:52.540Z,1024.6
2017-08-20T12:27:53.954Z,1022.8
2017-08-20T12:28:55.358Z,1021.2
2017-08-20T12:29:56.779Z,1019.8
2017-08-20T12:30:58.189Z,1018.5
2017-08-20T12:31:59.601Z,1017.2
2017-08-20T12:33:01.017Z,1015.8
2017-08-20T12:34:02.432Z,1014.5
2017-08-20T12:35:03.878Z,1013.4
2017-08-20T12:36:05.290Z,1012.3
2017-08-20T12:37:06.705Z,1011.2
2017-08-20T12:38:08.196Z,1010.3
2017-08-20T12:39:09.616Z,1009.5
2017-08-20T12:40:11.022Z,1008.7
2017-08-20T12:41:12.438Z,1008.0
2017-08-20T12:42:13.854Z,1007.3
2017-08-20T12:43:15.656Z,1006.7
2017-08-20T12:44:17.071Z,1006.1
2017-08-20T12:45:18.492Z,1005.6
2017-08-20T12:46:19.925Z,1005.2